Time;durP1;ratioP1;P1;durP2;ratioP2;P2;SDS_P1;SDS_P2;PMS_P1;PMS_P2;Temp;Humidity;BMP_temperature;BMP_pressure;BME280_temperature;BME280_humidity;BME280_pressure;Samples;Min_cycle;Max_cycle;Signal;HPM_P1;HPM_P2
2022/12/19 00:02:06;;;;;;;34.30;21.73;;;1.00;99.90;;;;;;4976493;28;20039;-86
2022/12/19 00:04:32;;;;;;;36.58;21.02;;;1.00;99.90;;;;;;4975415;28;20046;-85
2022/12/19 00:06:59;;;;;;;37.05;21.48;;;1.00;99.90;;;;;;4983373;28;20121;-86
2022/12/19 00:09:25;;;;;;;37.10;21.70;;;1.00;99.90;;;;;;4983524;28;20046;-86
2022/12/19 00:11:51;;;;;;;38.30;20.80;;;1.00;99.90;;;;;;4975011;28;20101;-86
2022/12/19 00:14:18;;;;;;;35.70;21.60;;;1.00;99.90;;;;;;4985637;28;20121;-87
2022/12/19 00:16:43;;;;;;;35.97;21.73;;;1.00;99.90;;;;;;4987567;28;20089;-86
2022/12/19 00:19:10;;;;;;;37.25;21.92;;;1.00;99.90;;;;;;4994259;28;20073;-86
2022/12/19 00:21:36;;;;;;;34.92;20.45;;;1.00;99.90;;;;;;4985956;28;20137;-86
2022/12/19 00:24:06;;;;;;;39.85;21.73;;;1.00;99.90;;;;;;4993735;28;20047;-86
2022/12/19 00:26:35;;;;;;;37.83;21.70;;;1.00;99.90;;;;;;4986406;28;20479;-86
2022/12/19 00:29:03;;;;;;;38.92;21.52;;;1.00;99.90;;;;;;4975889;28;20569;-86
2022/12/19 00:31:32;;;;;;;34.90;20.77;;;1.00;99.90;;;;;;4980834;28;20126;-86
2022/12/19 00:33:58;;;;;;;39.50;22.02;;;1.10;99.90;;;;;;4975549;28;20092;-85
2022/12/19 00:36:27;;;;;;;37.05;20.35;;;1.10;99.90;;;;;;4976389;28;20043;-86
2022/12/19 00:38:54;;;;;;;36.60;22.20;;;1.10;99.90;;;;;;5000383;28;20041;-85
2022/12/19 00:41:25;;;;;;;36.05;21.45;;;1.10;99.90;;;;;;5004872;28;20118;-86
2022/12/19 00:43:53;;;;;;;34.20;19.98;;;1.10;99.90;;;;;;4987712;28;20487;-86
2022/12/19 00:46:18;;;;;;;38.95;21.58;;;1.10;99.90;;;;;;4974471;28;20047;-86
2022/12/19 00:48:44;;;;;;;34.90;20.70;;;1.10;99.90;;;;;;4973558;28;20042;-86
2022/12/19 00:51:19;;;;;;;35.88;20.75;;;1.10;99.90;;;;;;4975121;28;20129;-86
2022/12/19 00:53:46;;;;;;;32.95;20.05;;;1.10;99.90;;;;;;4976267;28;20093;-86
2022/12/19 00:56:14;;;;;;;34.78;20.15;;;1.10;99.90;;;;;;4988416;28;20394;-87
2022/12/19 00:58:40;;;;;;;36.08;20.73;;;1.20;99.90;;;;;;4973858;28;20059;-85
2022/12/19 01:01:17;;;;;;;36.05;20.60;;;1.20;99.90;;;;;;4973097;28;20179;-86
2022/12/19 01:03:42;;;;;;;34.22;21.00;;;1.20;99.90;;;;;;4974213;28;20046;-86
2022/12/19 01:06:09;;;;;;;36.13;20.30;;;1.20;99.90;;;;;;4984687;28;20053;-86
2022/12/19 01:08:35;;;;;;;36.35;20.50;;;1.30;99.90;;;;;;4987491;28;20402;-86
2022/12/19 01:11:01;;;;;;;36.05;20.08;;;1.30;99.90;;;;;;4983208;28;20046;-86
2022/12/19 01:13:29;;;;;;;36.03;21.52;;;1.30;99.90;;;;;;4975006;28;20047;-86
2022/12/19 01:15:54;;;;;;;33.88;20.25;;;1.30;99.90;;;;;;4973284;28;20055;-86
2022/12/19 01:18:20;;;;;;;36.65;20.83;;;1.30;99.90;;;;;;4993307;28;20494;-86
2022/12/19 01:20:46;;;;;;;37.05;20.50;;;1.30;99.90;;;;;;4994323;28;20054;-87
2022/12/19 01:23:14;;;;;;;34.33;20.80;;;1.40;99.90;;;;;;4987828;28;20049;-84
2022/12/19 01:25:40;;;;;;;40.22;21.52;;;1.40;99.90;;;;;;4974106;28;20056;-84
2022/12/19 01:28:07;;;;;;;37.70;21.10;;;1.40;99.90;;;;;;4981232;28;20043;-84
2022/12/19 01:30:33;;;;;;;35.97;21.13;;;1.40;99.90;;;;;;4976035;28;20125;-84
2022/12/19 01:32:59;;;;;;;36.53;20.88;;;1.40;99.90;;;;;;4974702;28;20046;-84
2022/12/19 01:35:26;;;;;;;34.75;20.65;;;1.50;99.90;;;;;;4974517;28;20035;-84
2022/12/19 01:37:53;;;;;;;35.15;21.00;;;1.50;99.90;;;;;;4973203;28;20043;-84
2022/12/19 01:40:20;;;;;;;36.08;20.40;;;1.50;99.90;;;;;;4974420;28;20089;-84
2022/12/19 01:42:46;;;;;;;35.75;19.95;;;1.50;99.90;;;;;;4973452;28;20054;-84
2022/12/19 01:45:15;;;;;;;34.05;20.27;;;1.50;99.90;;;;;;4979352;28;20039;-84
2022/12/19 01:48:00;;;;;;;33.40;19.85;;;1.50;99.90;;;;;;4974390;28;20097;-84
2022/12/19 01:50:34;;;;;;;35.67;20.45;;;1.50;99.90;;;;;;4973489;28;20682;-84
2022/12/19 01:53:01;;;;;;;34.05;20.65;;;1.60;99.90;;;;;;4980780;28;20126;-84
2022/12/19 01:55:27;;;;;;;34.45;19.88;;;1.60;99.90;;;;;;4974290;28;20410;-84
2022/12/19 01:57:54;;;;;;;34.38;20.00;;;1.60;99.90;;;;;;4981409;28;20049;-84
2022/12/19 02:00:20;;;;;;;36.28;20.83;;;1.60;99.90;;;;;;4979450;28;20054;-84
2022/12/19 02:02:54;;;;;;;35.40;20.25;;;1.60;99.90;;;;;;4984167;28;20053;-84
2022/12/19 02:05:20;;;;;;;32.67;19.45;;;1.60;99.90;;;;;;4992321;28;20113;-84
2022/12/19 02:07:47;;;;;;;37.28;21.25;;;1.60;99.90;;;;;;4989262;28;20165;-84
2022/12/19 02:10:13;;;;;;;39.88;21.52;;;1.60;99.90;;;;;;4974218;28;20038;-84
2022/12/19 02:12:40;;;;;;;35.08;20.98;;;1.60;99.90;;;;;;4974744;28;20043;-84
2022/12/19 02:15:08;;;;;;;32.35;19.08;;;1.70;99.90;;;;;;4974483;28;20046;-84
2022/12/19 02:17:53;;;;;;;35.22;20.55;;;1.60;99.90;;;;;;4989031;28;20058;-84
2022/12/19 02:20:21;;;;;;;37.20;20.60;;;1.70;99.90;;;;;;4983482;28;20034;-85
2022/12/19 02:23:07;;;;;;;34.58;20.25;;;1.70;99.90;;;;;;4986554;28;20057;-85
2022/12/19 02:25:48;;;;;;;37.58;20.60;;;1.70;99.90;;;;;;4985422;28;20047;-84
2022/12/19 02:28:38;;;;;;;33.38;19.90;;;1.70;99.90;;;;;;4983385;28;20509;-85
2022/12/19 02:31:21;;;;;;;37.03;20.70;;;1.70;99.90;;;;;;4974242;28;20050;-84
2022/12/19 02:33:59;;;;;;;33.05;19.65;;;1.70;99.90;;;;;;4972532;28;20045;-84
2022/12/19 02:36:34;;;;;;;42.05;21.67;;;1.70;99.90;;;;;;4986247;28;20484;-84
2022/12/19 02:39:13;;;;;;;36.05;20.50;;;1.70;99.90;;;;;;4975680;28;20050;-84
2022/12/19 02:41:54;;;;;;;35.17;21.27;;;1.70;99.90;;;;;;5006854;28;20045;-83
2022/12/19 02:44:35;;;;;;;37.60;22.00;;;1.70;99.90;;;;;;4972895;28;20078;-84
2022/12/19 02:47:03;;;;;;;38.42;21.85;;;1.70;99.90;;;;;;4973556;28;20090;-85
2022/12/19 02:49:29;;;;;;;34.17;20.38;;;1.70;99.90;;;;;;4977255;28;21509;-84
2022/12/19 02:51:55;;;;;;;41.63;22.65;;;1.70;99.90;;;;;;4988149;28;20035;-85
2022/12/19 02:54:21;;;;;;;38.17;22.00;;;1.70;99.90;;;;;;4993577;28;20050;-84
2022/12/19 02:56:53;;;;;;;39.28;21.90;;;1.70;99.90;;;;;;4983230;28;20046;-84
2022/12/19 02:59:38;;;;;;;36.22;21.60;;;1.70;99.90;;;;;;4975999;28;20078;-84
2022/12/19 03:02:25;;;;;;;39.00;21.73;;;1.70;99.90;;;;;;4984586;28;20443;-85
2022/12/19 03:05:13;;;;;;;34.20;20.48;;;1.70;99.90;;;;;;4986855;28;20049;-84
2022/12/19 03:07:44;;;;;;;33.92;19.58;;;1.80;99.90;;;;;;4977982;28;20537;-85
2022/12/19 03:10:16;;;;;;;31.95;19.88;;;1.80;99.90;;;;;;4984028;28;20039;-85
2022/12/19 03:12:50;;;;;;;32.78;20.25;;;1.80;99.90;;;;;;4984699;28;20043;-84
2022/12/19 03:15:16;;;;;;;31.25;19.85;;;1.80;99.90;;;;;;4976136;28;20043;-85
2022/12/19 03:17:42;;;;;;;37.10;21.65;;;1.80;99.90;;;;;;4982152;28;20042;-84
2022/12/19 03:20:19;;;;;;;34.85;20.88;;;1.80;99.90;;;;;;4976130;28;20064;-85
2022/12/19 03:22:45;;;;;;;33.92;20.60;;;1.80;99.90;;;;;;4975579;28;20043;-85
2022/12/19 03:25:10;;;;;;;45.22;25.55;;;1.80;99.90;;;;;;4976923;28;20035;-84
2022/12/19 03:27:38;;;;;;;37.85;22.25;;;1.80;99.90;;;;;;4991948;28;20097;-84
2022/12/19 03:30:08;;;;;;;43.75;24.58;;;1.80;99.90;;;;;;4976575;28;20047;-84
2022/12/19 03:32:36;;;;;;;42.22;24.42;;;1.90;99.90;;;;;;4984862;28;20118;-84
2022/12/19 03:35:08;;;;;;;36.15;22.02;;;1.90;99.90;;;;;;4984418;28;20051;-84
2022/12/19 03:37:37;;;;;;;35.22;22.27;;;1.90;99.90;;;;;;4986951;28;20047;-83
2022/12/19 03:40:11;;;;;;;47.15;25.13;;;1.90;99.90;;;;;;4976828;28;20635;-84
2022/12/19 03:45:38;;;;;;;38.80;23.38;;;2.00;99.90;;;;;;4976565;28;20058;-85
2022/12/19 03:48:10;;;;;;;42.83;24.70;;;2.00;99.90;;;;;;4979752;28;20056;-85
2022/12/19 03:50:47;;;;;;;40.55;23.45;;;2.00;99.90;;;;;;4974950;28;20093;-85
2022/12/19 03:53:34;;;;;;;46.97;25.08;;;2.00;99.90;;;;;;4975787;28;20053;-85
2022/12/19 03:56:10;;;;;;;43.90;24.70;;;2.10;99.90;;;;;;4975802;28;20542;-84
2022/12/19 03:58:41;;;;;;;37.83;22.48;;;2.10;99.90;;;;;;4973335;28;20047;-85
2022/12/19 04:01:08;;;;;;;40.22;24.70;;;2.10;99.90;;;;;;4986680;28;20069;-85
2022/12/19 04:03:34;;;;;;;47.80;27.13;;;2.10;99.90;;;;;;4990619;28;20055;-84
2022/12/19 04:06:01;;;;;;;40.50;24.20;;;2.20;99.90;;;;;;4984676;28;20054;-85
2022/12/19 04:08:30;;;;;;;42.97;25.15;;;2.20;99.90;;;;;;4980845;28;20050;-86
2022/12/19 04:11:06;;;;;;;39.70;24.65;;;2.20;99.90;;;;;;4977530;28;20039;-86
2022/12/19 04:13:37;;;;;;;46.72;26.95;;;2.20;99.90;;;;;;4975702;28;20455;-86
2022/12/19 04:16:15;;;;;;;42.58;25.35;;;2.20;99.90;;;;;;4976404;28;20086;-87
2022/12/19 04:18:45;;;;;;;42.72;24.48;;;2.30;99.90;;;;;;4981872;28;20065;-87
2022/12/19 04:21:17;;;;;;;41.95;24.25;;;2.30;99.90;;;;;;4975088;28;20081;-86
2022/12/19 04:23:49;;;;;;;52.53;28.95;;;2.30;99.90;;;;;;4980558;28;20407;-87
2022/12/19 04:26:17;;;;;;;47.88;27.63;;;2.30;99.90;;;;;;4989933;28;20057;-87
2022/12/19 04:28:50;;;;;;;48.35;27.33;;;2.40;99.90;;;;;;4975941;28;20487;-87
2022/12/19 04:31:18;;;;;;;40.78;24.30;;;2.40;99.90;;;;;;4974736;28;20395;-87
2022/12/19 04:33:44;;;;;;;42.90;25.73;;;2.50;99.90;;;;;;4983085;28;20050;-87
2022/12/19 04:36:10;;;;;;;48.58;28.52;;;2.40;99.90;;;;;;4994972;28;20080;-87
2022/12/19 04:38:36;;;;;;;46.97;27.73;;;2.50;99.90;;;;;;4985541;28;20066;-87
2022/12/19 04:41:01;;;;;;;44.17;26.70;;;2.40;99.90;;;;;;4974985;28;20027;-87
2022/12/19 04:43:27;;;;;;;45.42;27.08;;;2.50;99.90;;;;;;4985338;28;20442;-86
2022/12/19 04:45:53;;;;;;;47.33;29.35;;;2.50;99.90;;;;;;5013854;28;20044;-87
2022/12/19 04:48:18;;;;;;;44.38;27.00;;;2.50;99.90;;;;;;5006591;28;20182;-88
2022/12/19 04:50:44;;;;;;;41.10;25.10;;;2.50;99.90;;;;;;4978576;28;20494;-88
2022/12/19 04:53:10;;;;;;;44.58;25.45;;;2.50;99.90;;;;;;4987641;28;20050;-87
2022/12/19 04:55:35;;;;;;;50.80;28.80;;;2.50;99.90;;;;;;4984731;28;20039;-87
2022/12/19 04:58:04;;;;;;;45.45;26.45;;;2.50;99.90;;;;;;4989361;28;20061;-88
2022/12/19 05:00:29;;;;;;;46.55;26.60;;;2.50;99.90;;;;;;4987178;28;20043;-89
2022/12/19 05:02:55;;;;;;;46.67;25.98;;;2.60;99.90;;;;;;4974949;28;20049;-89
2022/12/19 05:05:20;;;;;;;42.15;24.67;;;2.60;99.90;;;;;;4976936;28;20085;-88
2022/12/19 05:07:46;;;;;;;46.97;26.30;;;2.60;99.90;;;;;;4975548;28;20046;-89
2022/12/19 05:10:12;;;;;;;38.30;24.05;;;2.60;99.90;;;;;;4980401;28;20038;-89
2022/12/19 05:12:37;;;;;;;39.33;23.15;;;2.60;99.90;;;;;;4985278;28;20557;-88
2022/12/19 05:15:04;;;;;;;36.20;22.33;;;2.70;99.90;;;;;;4973656;28;20096;-89
2022/12/19 05:17:30;;;;;;;37.05;22.98;;;2.70;99.90;;;;;;4974992;28;20097;-89
2022/12/19 05:19:55;;;;;;;43.25;22.88;;;2.70;99.90;;;;;;4975030;28;20070;-87
2022/12/19 05:22:21;;;;;;;36.30;22.15;;;2.60;99.90;;;;;;4974354;28;20053;-87
2022/12/19 05:24:47;;;;;;;37.78;22.67;;;2.70;99.90;;;;;;4994955;28;20037;-91
2022/12/19 05:27:12;;;;;;;38.95;23.70;;;2.70;99.90;;;;;;4995849;28;20053;-90
2022/12/19 05:29:38;;;;;;;38.05;23.23;;;2.70;99.90;;;;;;4973892;28;20047;-88
2022/12/19 05:32:04;;;;;;;41.50;24.50;;;2.70;99.90;;;;;;4971861;28;20486;-87
2022/12/19 05:34:29;;;;;;;43.78;25.45;;;2.80;99.90;;;;;;4974301;28;20046;-88
2022/12/19 05:36:55;;;;;;;44.75;25.52;;;2.80;99.90;;;;;;4989164;28;20046;-88
2022/12/19 05:39:20;;;;;;;36.70;22.17;;;2.80;99.90;;;;;;4991876;28;20522;-87
2022/12/19 05:41:46;;;;;;;35.88;21.55;;;2.80;99.90;;;;;;4994370;28;20053;-86
2022/12/19 05:44:11;;;;;;;39.97;23.27;;;2.90;99.90;;;;;;4992119;28;20039;-87
2022/12/19 05:46:37;;;;;;;40.75;24.17;;;2.90;99.90;;;;;;4993032;28;20050;-88
2022/12/19 05:49:03;;;;;;;37.72;21.75;;;2.90;99.90;;;;;;4989519;28;20483;-88
2022/12/19 05:51:28;;;;;;;30.27;18.67;;;2.90;99.90;;;;;;4974003;28;20039;-88
2022/12/19 05:53:54;;;;;;;36.50;21.35;;;3.00;99.90;;;;;;4974582;28;20051;-88
2022/12/19 05:56:21;;;;;;;34.55;21.02;;;3.00;99.90;;;;;;4972566;28;20045;-87
2022/12/19 05:58:47;;;;;;;35.60;21.73;;;3.00;99.90;;;;;;4974307;28;20073;-87
2022/12/19 06:01:22;;;;;;;35.17;20.95;;;3.10;99.90;;;;;;4973448;28;20474;-88
2022/12/19 06:03:49;;;;;;;32.72;19.95;;;3.10;99.90;;;;;;4972988;28;20145;-87
2022/12/19 06:06:17;;;;;;;33.88;19.75;;;3.10;99.90;;;;;;4973541;28;20043;-88
2022/12/19 06:08:43;;;;;;;35.45;20.73;;;3.10;99.90;;;;;;4974361;28;20042;-87
2022/12/19 06:11:10;;;;;;;39.10;21.15;;;3.20;99.90;;;;;;4973491;28;20502;-88
2022/12/19 06:13:37;;;;;;;37.75;21.55;;;3.20;99.90;;;;;;4974805;28;20097;-88
2022/12/19 06:16:06;;;;;;;28.77;17.10;;;3.30;99.90;;;;;;4972862;28;20047;-88
2022/12/19 06:18:32;;;;;;;31.38;19.08;;;3.30;99.90;;;;;;4972904;28;20050;-89
2022/12/19 06:21:00;;;;;;;23.50;16.25;;;3.30;99.90;;;;;;4972489;28;20038;-89
2022/12/19 06:23:27;;;;;;;34.58;19.63;;;3.40;99.90;;;;;;4976201;28;20058;-88
2022/12/19 06:25:56;;;;;;;27.13;17.70;;;3.40;99.90;;;;;;4974045;28;20097;-87
2022/12/19 06:28:22;;;;;;;29.00;17.20;;;3.50;99.90;;;;;;4972742;28;20061;-88
2022/12/19 06:30:48;;;;;;;28.40;18.05;;;3.50;99.90;;;;;;4974125;28;20072;-88
2022/12/19 06:33:13;;;;;;;27.38;16.75;;;3.50;99.90;;;;;;4971928;28;20183;-88
2022/12/19 06:35:39;;;;;;;29.17;17.65;;;3.60;99.90;;;;;;4973101;28;20097;-88
2022/12/19 06:38:04;;;;;;;24.27;16.02;;;3.60;99.90;;;;;;4974165;28;20074;-89
2022/12/19 06:43:14;;;;;;;28.63;17.10;;;3.60;99.90;;;;;;4993048;28;20055;-88
2022/12/19 06:45:40;;;;;;;27.52;16.17;;;3.70;99.90;;;;;;4973698;28;20535;-89
2022/12/19 06:48:05;;;;;;;25.80;16.67;;;3.70;99.90;;;;;;4973933;28;20094;-90
2022/12/19 06:50:31;;;;;;;27.70;16.48;;;3.80;99.90;;;;;;4973674;28;20086;-89
2022/12/19 06:52:56;;;;;;;25.17;15.43;;;3.80;99.90;;;;;;4972186;28;20053;-89
2022/12/19 06:55:22;;;;;;;22.83;14.77;;;3.80;99.90;;;;;;4973027;28;20450;-89
2022/12/19 06:57:48;;;;;;;28.73;17.13;;;3.80;99.90;;;;;;4981342;28;20039;-88
2022/12/19 07:00:14;;;;;;;22.17;14.30;;;3.80;99.90;;;;;;4971703;28;20051;-89
2022/12/19 07:02:43;;;;;;;27.05;16.67;;;3.90;99.90;;;;;;4974929;28;20499;-89
2022/12/19 07:05:10;;;;;;;24.80;15.02;;;3.90;99.90;;;;;;4972744;28;20189;-89
2022/12/19 07:07:36;;;;;;;21.77;13.27;;;3.90;99.90;;;;;;4972386;28;20057;-89
2022/12/19 07:10:04;;;;;;;24.95;16.02;;;3.90;99.90;;;;;;4973183;28;20039;-88
2022/12/19 07:12:30;;;;;;;23.27;14.25;;;3.90;99.90;;;;;;4988641;28;20054;-90
2022/12/19 07:14:55;;;;;;;25.83;15.52;;;3.90;99.90;;;;;;4972299;28;20051;-89
2022/12/19 07:17:24;;;;;;;19.42;13.07;;;3.90;99.90;;;;;;4973653;28;20053;-89
2022/12/19 07:19:50;;;;;;;24.50;15.52;;;4.00;99.90;;;;;;4973923;28;20102;-89
2022/12/19 07:22:16;;;;;;;26.90;17.25;;;4.00;99.90;;;;;;4972950;28;20097;-89
2022/12/19 07:24:42;;;;;;;23.73;14.88;;;4.00;99.90;;;;;;4972545;28;20051;-90
2022/12/19 07:27:07;;;;;;;24.85;15.48;;;4.00;99.90;;;;;;4973670;28;20122;-90
2022/12/19 07:29:33;;;;;;;24.95;15.20;;;4.00;99.90;;;;;;4974552;28;20038;-89
2022/12/19 07:31:58;;;;;;;24.77;14.70;;;4.10;99.90;;;;;;4974534;28;20051;-89
2022/12/19 07:34:24;;;;;;;26.83;16.63;;;4.10;99.90;;;;;;4977022;28;20053;-89
2022/12/19 07:36:50;;;;;;;25.35;15.98;;;4.10;99.90;;;;;;5007902;28;20126;-90
2022/12/19 07:39:15;;;;;;;26.63;16.42;;;4.10;99.90;;;;;;4977328;28;20423;-89
2022/12/19 07:41:41;;;;;;;27.27;16.88;;;4.10;99.90;;;;;;4978184;28;20097;-89
2022/12/19 07:44:07;;;;;;;27.42;16.05;;;4.20;99.90;;;;;;5008453;28;20046;-89
2022/12/19 07:46:33;;;;;;;27.52;16.30;;;4.20;99.90;;;;;;4976506;28;20058;-91
2022/12/19 07:48:59;;;;;;;27.17;16.85;;;4.30;99.90;;;;;;4999364;28;20391;-90
2022/12/19 07:51:24;;;;;;;31.13;17.98;;;4.30;99.90;;;;;;4994718;28;20077;-89
2022/12/19 07:53:50;;;;;;;24.70;15.82;;;4.30;99.90;;;;;;4989862;28;20042;-89
2022/12/19 07:56:16;;;;;;;24.15;15.38;;;4.30;99.90;;;;;;4975213;28;20073;-89
2022/12/19 07:58:43;;;;;;;27.25;15.30;;;4.40;99.90;;;;;;4976902;28;20144;-90
2022/12/19 08:01:10;;;;;;;23.48;15.27;;;4.40;99.90;;;;;;4976706;28;20058;-89
2022/12/19 08:03:36;;;;;;;26.52;15.75;;;4.40;99.90;;;;;;4976449;28;20043;-88
2022/12/19 08:06:04;;;;;;;26.52;16.27;;;4.40;99.90;;;;;;5008603;28;20054;-90
2022/12/19 08:08:30;;;;;;;25.30;16.05;;;4.50;99.90;;;;;;4976232;28;20078;-90
2022/12/19 08:11:05;;;;;;;30.55;17.02;;;4.50;99.90;;;;;;4977625;28;20114;-90
2022/12/19 08:13:30;;;;;;;27.15;15.82;;;4.50;99.90;;;;;;5008427;28;20483;-90
2022/12/19 08:15:59;;;;;;;24.17;15.38;;;4.60;99.90;;;;;;4977000;28;20045;-89
2022/12/19 08:18:25;;;;;;;24.13;15.48;;;4.60;99.90;;;;;;4991826;28;20101;-89
2022/12/19 08:20:50;;;;;;;30.20;15.98;;;4.60;99.90;;;;;;4977781;28;20050;-89
2022/12/19 08:23:16;;;;;;;27.30;15.68;;;4.70;99.90;;;;;;4978127;28;20454;-90
2022/12/19 08:25:42;;;;;;;28.75;16.77;;;4.70;99.90;;;;;;4996770;28;20050;-91
2022/12/19 08:28:07;;;;;;;20.67;13.68;;;4.80;99.90;;;;;;4975795;28;20058;-90
2022/12/19 08:30:33;;;;;;;28.40;16.90;;;4.80;99.90;;;;;;4976755;28;20498;-88
2022/12/19 08:32:59;;;;;;;25.95;16.05;;;4.80;99.90;;;;;;4974729;28;20078;-90
2022/12/19 08:35:24;;;;;;;23.67;15.18;;;4.80;99.90;;;;;;4975823;28;20101;-89
2022/12/19 08:37:50;;;;;;;22.80;15.25;;;4.90;99.90;;;;;;4976555;28;20398;-88
2022/12/19 08:40:19;;;;;;;20.20;12.45;;;4.90;99.90;;;;;;4974574;28;20537;-89
2022/12/19 08:42:44;;;;;;;24.17;15.48;;;4.90;99.90;;;;;;4975323;28;20052;-88
2022/12/19 08:45:10;;;;;;;21.20;13.85;;;5.00;99.90;;;;;;4974572;28;20039;-89
2022/12/19 08:47:36;;;;;;;16.02;11.13;;;5.00;99.90;;;;;;4974848;28;20497;-90
2022/12/19 08:50:01;;;;;;;23.50;14.65;;;5.00;99.90;;;;;;4975069;28;20054;-90
2022/12/19 08:52:27;;;;;;;23.35;15.10;;;5.00;99.90;;;;;;4975155;28;20050;-89
2022/12/19 08:54:52;;;;;;;16.67;11.63;;;5.00;99.90;;;;;;4975120;28;20039;-89
2022/12/19 08:57:18;;;;;;;19.42;13.73;;;5.10;99.90;;;;;;4989792;28;20494;-88
2022/12/19 08:59:44;;;;;;;23.90;16.05;;;5.10;99.90;;;;;;4993538;28;20406;-88
2022/12/19 09:02:10;;;;;;;15.43;11.13;;;5.10;99.90;;;;;;4985056;28;20123;-88
2022/12/19 09:04:38;;;;;;;24.85;15.30;;;5.10;99.90;;;;;;4974942;28;20047;-90
2022/12/19 09:07:03;;;;;;;35.05;21.13;;;5.20;99.90;;;;;;4975528;28;20039;-89
2022/12/19 09:09:29;;;;;;;19.88;13.80;;;5.20;99.90;;;;;;4975891;28;20054;-89
2022/12/19 09:11:55;;;;;;;28.00;16.08;;;5.30;99.90;;;;;;4975033;28;20074;-90
2022/12/19 09:14:20;;;;;;;29.33;16.85;;;5.30;99.90;;;;;;4975037;28;20129;-88
2022/12/19 09:16:46;;;;;;;27.55;16.35;;;5.40;99.90;;;;;;4975435;28;20047;-88
2022/12/19 09:19:14;;;;;;;27.65;17.02;;;5.40;99.90;;;;;;4974800;28;20402;-89
2022/12/19 09:21:40;;;;;;;25.80;17.27;;;5.40;99.90;;;;;;4974959;28;20039;-90
2022/12/19 09:24:05;;;;;;;30.27;17.80;;;5.50;99.90;;;;;;4974272;28;20510;-89
2022/12/19 09:26:31;;;;;;;30.48;17.45;;;5.50;99.90;;;;;;4974187;28;20049;-89
2022/12/19 09:28:58;;;;;;;34.80;20.63;;;5.50;99.90;;;;;;4973724;28;20047;-89
2022/12/19 09:31:24;;;;;;;25.35;17.38;;;5.60;99.90;;;;;;4988716;28;20046;-87
2022/12/19 09:33:51;;;;;;;25.48;17.63;;;5.70;99.90;;;;;;4987950;28;20467;-88
2022/12/19 09:36:22;;;;;;;31.67;19.58;;;5.70;99.90;;;;;;4987066;28;20044;-88
2022/12/19 09:38:49;;;;;;;31.80;18.58;;;5.80;99.90;;;;;;4991712;28;20101;-87
2022/12/19 09:41:52;;;;;;;32.90;18.77;;;5.80;99.90;;;;;;4974955;28;20058;-89
2022/12/19 09:45:12;;;;;;;26.60;17.67;;;5.80;99.90;;;;;;4918644;29;20051;-88
2022/12/19 09:47:42;;;;;;;28.17;17.23;;;5.80;99.90;;;;;;4934508;29;20062;-88
2022/12/19 09:50:25;;;;;;;28.23;18.42;;;5.90;99.90;;;;;;4972409;28;20054;-88
2022/12/19 09:52:59;;;;;;;27.77;18.65;;;5.90;99.90;;;;;;4974210;28;20574;-89
2022/12/19 09:55:31;;;;;;;;;;;5.90;99.90;;;;;;4973404;28;20051;-87
2022/12/19 09:58:07;;;;;;;29.20;16.83;;;6.00;99.90;;;;;;4973345;28;19922;-88
2022/12/19 10:00:56;;;;;;;30.70;17.05;;;6.00;99.90;;;;;;4974861;28;20058;-88
2022/12/19 10:03:31;;;;;;;28.77;18.40;;;6.10;99.90;;;;;;4973944;28;20055;-87
2022/12/19 10:06:02;;;;;;;28.95;18.70;;;6.10;99.90;;;;;;4974471;28;20042;-89
2022/12/19 10:08:32;;;;;;;29.42;17.63;;;6.20;99.90;;;;;;4974404;28;20047;-88
2022/12/19 10:11:01;;;;;;;24.08;16.17;;;6.20;99.90;;;;;;4973985;28;20093;-88
2022/12/19 10:13:39;;;;;;;27.20;17.92;;;6.30;99.90;;;;;;4973081;28;20498;-88
2022/12/19 10:16:09;;;;;;;24.23;16.08;;;6.30;99.90;;;;;;4974683;28;20042;-87
2022/12/19 10:18:47;;;;;;;30.05;19.63;;;6.40;99.90;;;;;;4972695;28;20046;-89
2022/12/19 10:21:31;;;;;;;27.67;17.10;;;6.40;99.90;;;;;;4973672;28;20045;-88
2022/12/19 10:24:17;;;;;;;22.65;15.27;;;6.40;99.90;;;;;;4973934;28;20043;-88
2022/12/19 10:26:51;;;;;;;28.35;18.65;;;6.50;99.90;;;;;;4973683;28;20038;-88
2022/12/19 10:29:35;;;;;;;23.77;16.15;;;6.50;99.90;;;;;;4977672;28;20403;-88
2022/12/19 10:32:23;;;;;;;26.88;17.13;;;6.50;99.90;;;;;;4981287;28;20386;-87
2022/12/19 10:34:51;;;;;;;23.33;15.68;;;6.50;99.90;;;;;;4988675;28;20049;-88
2022/12/19 10:37:27;;;;;;;24.17;16.48;;;6.60;99.90;;;;;;4974154;28;20087;-88
2022/12/19 10:40:00;;;;;;;26.15;17.13;;;6.60;99.90;;;;;;4973174;28;20172;-88
2022/12/19 10:42:35;;;;;;;26.08;16.63;;;6.60;99.90;;;;;;4972815;28;20059;-88
2022/12/19 10:45:09;;;;;;;21.52;14.73;;;6.60;99.90;;;;;;4972600;28;20043;-88
2022/12/19 10:47:35;;;;;;;25.27;16.08;;;6.60;99.90;;;;;;4974433;28;20050;-88
2022/12/19 10:50:01;;;;;;;29.05;16.80;;;6.70;99.90;;;;;;4973337;28;20043;-87
2022/12/19 10:52:52;;;;;;;31.23;17.30;;;6.70;99.90;;;;;;4971990;28;20097;-88
2022/12/19 10:55:23;;;;;;;22.75;14.63;;;6.80;99.90;;;;;;4976139;28;20053;-88
2022/12/19 10:57:49;;;;;;;28.70;16.15;;;6.80;99.90;;;;;;4991465;28;20058;-86
2022/12/19 11:00:16;;;;;;;23.98;15.27;;;6.80;99.90;;;;;;4982824;28;20503;-87
2022/12/19 11:02:50;;;;;;;23.30;15.32;;;6.80;99.90;;;;;;4975762;28;20546;-86
2022/12/19 11:05:26;;;;;;;23.42;14.95;;;6.90;99.90;;;;;;4989158;28;20047;-88
2022/12/19 11:08:07;;;;;;;20.40;13.60;;;6.90;99.90;;;;;;4981579;28;20047;-87
2022/12/19 11:10:36;;;;;;;22.67;14.88;;;6.90;99.90;;;;;;4976800;28;20043;-86
2022/12/19 11:13:01;;;;;;;16.92;11.43;;;7.00;99.90;;;;;;4983396;28;20494;-87
2022/12/19 11:15:32;;;;;;;19.55;13.38;;;7.00;99.90;;;;;;4992441;28;20082;-87
2022/12/19 11:18:11;;;;;;;21.88;14.07;;;7.10;99.90;;;;;;4978109;28;20042;-86
2022/12/19 11:20:57;;;;;;;16.83;12.05;;;7.10;99.90;;;;;;4977239;28;20403;-88
2022/12/19 11:23:25;;;;;;;16.58;11.43;;;7.10;99.90;;;;;;4999552;28;20053;-90
2022/12/19 11:26:00;;;;;;;20.60;12.50;;;7.10;99.90;;;;;;4991922;28;20046;-89
2022/12/19 11:28:33;;;;;;;20.05;13.27;;;7.10;99.90;;;;;;4994140;28;20050;-88
2022/12/19 11:31:02;;;;;;;16.58;10.77;;;7.20;99.90;;;;;;4989363;28;20406;-87
2022/12/19 11:33:28;;;;;;;22.73;13.23;;;7.20;99.90;;;;;;4980390;28;20054;-88
2022/12/19 11:36:00;;;;;;;18.90;11.00;;;7.20;99.90;;;;;;4975526;28;20406;-87
2022/12/19 11:38:40;;;;;;;17.75;10.52;;;7.30;99.90;;;;;;4980195;28;20117;-89
2022/12/19 11:41:13;;;;;;;17.25;11.02;;;7.30;99.90;;;;;;4981699;28;20464;-87
2022/12/19 11:43:52;;;;;;;18.98;11.45;;;7.30;99.90;;;;;;4976759;28;20054;-87
2022/12/19 11:46:34;;;;;;;18.27;11.55;;;7.30;99.90;;;;;;4983070;28;20049;-88
2022/12/19 11:49:37;;;;;;;16.10;11.32;;;7.40;99.90;;;;;;4994707;28;20100;-87
2022/12/19 11:52:14;;;;;;;15.75;10.98;;;7.40;99.90;;;;;;4994572;28;20126;-88
2022/12/19 11:55:09;;;;;;;15.60;10.90;;;7.40;99.90;;;;;;4983188;28;20050;-89
2022/12/19 11:57:37;;;;;;;16.48;11.05;;;7.50;99.90;;;;;;4975406;28;20101;-86
2022/12/19 12:00:21;;;;;;;16.52;11.23;;;7.50;99.90;;;;;;4986487;28;20043;-88
2022/12/19 12:03:05;;;;;;;17.95;10.98;;;7.50;99.90;;;;;;4987347;28;20065;-89
2022/12/19 12:05:34;;;;;;;11.93;8.45;;;7.50;99.90;;;;;;4979419;28;20042;-88
2022/12/19 12:08:21;;;;;;;13.63;9.48;;;7.50;99.90;;;;;;4989909;28;20046;-88
2022/12/19 12:10:58;;;;;;;14.48;9.52;;;7.60;99.90;;;;;;4987327;28;20121;-88
2022/12/19 12:13:41;;;;;;;17.35;8.95;;;7.60;99.90;;;;;;4992894;28;20204;-89
2022/12/19 12:16:13;;;;;;;13.35;9.68;;;7.60;99.90;;;;;;4990949;28;20138;-89
2022/12/19 12:18:50;;;;;;;14.98;9.70;;;7.60;99.90;;;;;;4986837;28;20050;-88
2022/12/19 12:21:23;;;;;;;14.32;9.88;;;7.60;99.90;;;;;;4978791;28;20039;-87
2022/12/19 12:24:10;;;;;;;13.70;8.75;;;7.70;99.90;;;;;;4981582;28;20495;-88
2022/12/19 12:26:45;;;;;;;17.25;9.32;;;7.70;99.90;;;;;;4991071;28;20066;-89
2022/12/19 12:29:28;;;;;;;17.38;10.30;;;7.70;99.90;;;;;;4980705;28;20503;-89
2022/12/19 12:32:24;;;;;;;14.43;9.27;;;7.70;99.90;;;;;;4996068;28;20038;-88
2022/12/19 12:35:09;;;;;;;13.45;8.93;;;7.70;99.90;;;;;;4986977;28;20185;-89
2022/12/19 12:37:51;;;;;;;14.38;10.30;;;7.70;99.90;;;;;;4987395;28;20061;-89
2022/12/19 12:40:54;;;;;;;14.35;9.18;;;7.80;99.90;;;;;;4984426;28;20042;-90
2022/12/19 12:43:25;;;;;;;14.10;10.02;;;7.80;99.90;;;;;;4994770;28;20404;-89
2022/12/19 12:45:51;;;;;;;13.10;9.68;;;7.80;99.90;;;;;;5005531;28;20046;-89
2022/12/19 12:48:40;;;;;;;14.57;9.57;;;7.80;99.90;;;;;;4986216;28;20092;-90
2022/12/19 12:51:06;;;;;;;16.98;10.18;;;7.80;99.90;;;;;;4990314;28;20112;-90
2022/12/19 12:53:39;;;;;;;16.10;9.38;;;7.80;99.90;;;;;;4982563;28;20503;-90
2022/12/19 12:56:09;;;;;;;14.90;10.05;;;7.90;99.90;;;;;;4985224;28;20511;-90
2022/12/19 12:58:52;;;;;;;14.73;9.30;;;7.90;99.90;;;;;;4976659;28;20062;-92
2022/12/19 13:01:27;;;;;;;11.55;9.52;;;7.90;99.90;;;;;;4981425;28;20053;-89